Latest Weather Observations for Rocky Gully South

IDW60801

Issued at 10:33 pm WST Sunday 23 July 2017 (issued every 30 minutes, with the page automatically refreshed every 10 minutes)

About weather observations | Map of weather stations | Latest weather observations for WA | Other Formats
Station Details ID: 009964 Name: ROCKY GULLY Lat: -34.57 Lon: 117.01 Height: 250.0 m
Data from the previous 72 hours. | See also: Recent months at Rocky Gully South
Date/Time
WST
Temp
°C
App
Temp
°C
Dew
Point
°C
Rel
Hum
%
Delta-T
°C
Wind Press
QNH
hPa
Press
MSL
hPa
Rain since
9am
mm
Dir  Spd
km/h
Gust
km/h
Spd
kts
Gust
kts
23/10:30pm 9.3 6.6 7.4 88 0.9 NW 11 20 6 11 - - 2.0
23/10:00pm 9.3 6.5 7.1 86 1.0 NW 11 17 6 9 - - 1.8
23/09:30pm 9.4 6.6 6.8 84 1.2 NW 11 19 6 10 - - 1.8
23/09:00pm 9.8 7.0 6.9 82 1.4 NW 11 24 6 13 - - 1.8
23/08:30pm 9.6 6.7 6.5 81 1.5 NW 11 19 6 10 - - 1.8
23/08:00pm 9.7 6.8 6.4 80 1.6 NW 11 19 6 10 - - 1.8
23/07:30pm 9.9 7.4 6.4 79 1.7 NW 9 17 5 9 - - 1.8
23/07:00pm 10.2 7.6 6.2 76 1.9 NW 9 17 5 9 - - 1.8
23/06:30pm 10.6 7.6 6.0 73 2.2 WNW 11 20 6 11 - - 1.8
23/06:00pm 11.0 8.0 6.2 72 2.3 WNW 11 19 6 10 - - 1.8
23/05:30pm 11.6 7.8 5.9 68 2.7 WNW 15 28 8 15 - - 1.8
23/05:00pm 11.9 8.4 5.5 65 3.0 WNW 13 24 7 13 - - 1.8
23/04:30pm 12.9 9.6 6.5 65 3.1 W 13 24 7 13 - - 1.8
23/04:00pm 13.2 9.4 5.6 60 3.6 WNW 15 30 8 16 - - 1.8
23/03:30pm 13.3 8.8 6.2 62 3.4 WNW 19 33 10 18 - - 1.8
23/03:00pm 14.0 9.8 5.6 57 4.0 WNW 17 30 9 16 - - 1.8
23/02:30pm 14.3 9.3 4.6 52 4.6 WNW 20 37 11 20 - - 1.8
23/02:00pm 14.1 10.8 6.5 60 3.7 W 13 20 7 11 - - 1.8
23/01:30pm 14.2 11.1 7.3 63 3.4 WNW 13 20 7 11 - - 1.8
23/01:00pm 13.2 10.0 8.3 72 2.5 WNW 15 30 8 16 - - 1.8
23/12:30pm 11.6 9.8 9.5 87 1.1 WNW 9 17 5 9 - - 1.8
23/12:00pm 12.0 9.6 10.2 89 0.9 NW 13 20 7 11 - - 1.6
23/11:30am 11.7 9.7 10.3 91 0.7 NW 11 19 6 10 - - 1.6
23/11:00am 11.3 8.9 9.9 91 0.7 NW 13 20 7 11 - - 1.6
23/10:30am 11.5 8.8 10.2 92 0.7 NW 15 24 8 13 - - 0.8
23/10:00am 11.6 9.3 10.3 92 0.7 NNW 13 22 7 12 - - 0.0
23/09:30am 11.0 8.5 9.8 92 0.6 NNW 13 22 7 12 - - 0.0
23/09:00am 10.6 7.7 9.5 93 0.6 N 15 26 8 14 - - 2.4
23/08:30am 10.3 8.1 9.2 93 0.6 N 11 20 6 11 - - 2.2
23/08:00am 10.2 7.5 9.0 92 0.6 N 13 22 7 12 - - 2.0
23/07:30am 9.8 6.7 8.7 93 0.5 N 15 24 8 13 - - 0.8
23/07:00am 9.6 6.4 8.5 93 0.5 N 15 26 8 14 - - 0.8
23/06:30am 9.1 6.2 8.0 93 0.5 N 13 20 7 11 - - 0.8
23/06:00am 9.0 5.7 7.9 93 0.5 N 15 22 8 12 - - 0.8
23/05:30am 8.8 5.8 7.9 94 0.4 N 13 22 7 12 - - 0.6
23/05:00am 8.2 5.4 7.1 93 0.5 N 11 19 6 10 - - 0.6
23/04:30am 7.9 5.5 6.8 93 0.5 N 9 15 5 8 - - 0.6
23/04:00am 7.9 5.5 6.8 93 0.5 N 9 13 5 7 - - 0.6
23/03:30am 7.7 5.2 6.6 93 0.5 N 9 15 5 8 - - 0.6
23/03:00am 7.5 5.0 6.4 93 0.5 N 9 17 5 9 - - 0.6
23/02:30am 7.2 4.6 6.1 93 0.5 N 9 13 5 7 - - 0.6
23/02:00am 7.3 5.1 6.1 92 0.6 N 7 13 4 7 - - 0.6
23/01:30am 7.0 4.7 5.8 92 0.5 N 7 11 4 6 - - 0.6
23/01:00am 7.3 5.1 6.1 92 0.6 N 7 11 4 6 - - 0.6
23/12:30am 7.5 4.9 6.3 92 0.6 N 9 13 5 7 - - 0.6
23/12:00am 7.5 5.3 6.1 91 0.6 N 7 11 4 6 - - 0.6
 
Date/Time
WST
Temp
°C
App
Temp
°C
Dew
Point
°C
Rel
Hum
%
Delta-T
°C
Wind Press
QNH
hPa
Press
MSL
hPa
Rain since
9am
mm
Dir  Spd
km/h
Gust
km/h
Spd
kts
Gust
kts
22/11:30pm 7.6 4.6 6.2 91 0.6 N 11 15 6 8 - - 0.6
22/11:00pm 7.8 4.9 6.4 91 0.6 N 11 15 6 8 - - 0.6
22/10:30pm 7.4 5.2 6.0 91 0.6 N 7 11 4 6 - - 0.6
22/10:00pm 7.5 5.4 6.0 90 0.7 N 6 9 3 5 - - 0.6
22/09:30pm 7.8 4.9 6.3 90 0.7 N 11 13 6 7 - - 0.4
22/09:00pm 7.9 5.7 6.2 89 0.8 N 7 11 4 6 - - 0.4
22/08:30pm 8.1 5.9 6.4 89 0.8 N 7 13 4 7 - - 0.4
22/08:00pm 8.6 6.2 6.9 89 0.8 N 9 11 5 6 - - 0.4
22/07:30pm 8.7 6.6 6.7 87 0.9 NNW 7 11 4 6 - - 0.4
22/07:00pm 9.2 7.2 7.3 88 0.9 NNW 7 11 4 6 - - 0.4
22/06:30pm 9.4 7.4 7.3 87 1.0 N 7 9 4 5 - - 0.4
22/06:00pm 10.0 8.3 7.6 85 1.2 NNW 6 9 3 5 - - 0.4
22/05:30pm 10.7 9.5 7.9 83 1.4 NW 4 9 2 5 - - 0.4
22/05:00pm 11.5 10.7 8.2 80 1.6 NW 2 7 1 4 - - 0.4
22/04:30pm 12.6 11.2 8.9 78 1.9 WNW 6 13 3 7 - - 0.4
22/04:00pm 12.0 10.0 8.5 79 1.8 NW 9 17 5 9 - - 0.4
22/03:30pm 12.6 10.7 8.9 78 1.9 NW 9 15 5 8 - - 0.4
22/03:00pm 11.9 9.4 8.4 79 1.8 WNW 11 20 6 11 - - 0.4
22/02:30pm 11.7 8.9 8.7 82 1.5 WNW 13 28 7 15 - - 0.4
22/02:00pm 12.8 10.3 8.3 74 2.3 W 11 19 6 10 - - 0.0
22/01:30pm 12.1 8.8 8.0 76 2.0 WNW 15 24 8 13 - - 0.0
22/01:00pm 12.3 8.9 7.8 74 2.2 NW 15 26 8 14 - - 0.0
22/12:30pm 13.5 10.0 7.3 66 3.1 NW 15 30 8 16 - - 0.0
22/12:00pm 12.5 9.0 7.2 70 2.6 NW 15 30 8 16 - - 0.0
22/11:30am 11.9 9.3 7.6 75 2.1 WNW 11 24 6 13 - - 0.0
22/11:00am 11.2 7.8 7.5 78 1.8 WNW 15 24 8 13 - - 0.0
22/10:30am 11.1 8.5 7.6 79 1.7 NW 11 20 6 11 - - 0.0
22/10:00am 10.7 8.0 7.4 80 1.6 WNW 11 22 6 12 - - 0.0
22/09:30am 11.1 8.8 7.6 79 1.7 NNW 9 15 5 8 - - 0.0
22/09:00am 9.8 7.2 7.6 86 1.1 NNW 11 17 6 9 - - 9.6
22/08:30am 8.8 6.5 7.3 90 0.7 NNW 9 15 5 8 - - 9.6
22/08:00am 8.6 6.6 7.1 90 0.7 NW 7 13 4 7 - - 9.6
22/07:30am 8.5 6.5 7.0 90 0.7 NW 7 11 4 6 - - 9.4
22/07:00am 8.3 6.2 6.6 89 0.8 NNW 7 11 4 6 - - 9.4
22/06:30am 8.3 6.3 6.4 88 0.9 NW 6 11 3 6 - - 9.4
22/06:00am 8.4 6.4 6.2 86 1.0 WNW 6 11 3 6 - - 9.4
22/05:30am 8.5 5.9 6.3 86 1.0 NW 9 15 5 8 - - 9.4
22/05:00am 8.5 5.9 6.1 85 1.1 NNW 9 17 5 9 - - 9.4
22/04:30am 8.9 6.3 6.3 84 1.2 WNW 9 24 5 13 - - 9.4
22/04:00am 8.7 6.1 6.0 83 1.3 NW 9 15 5 8 - - 9.4
22/03:30am 8.8 6.2 6.1 83 1.3 NW 9 15 5 8 - - 9.4
22/03:00am 8.8 6.2 6.2 84 1.2 WNW 9 15 5 8 - - 9.4
22/02:30am 8.6 6.0 6.1 84 1.2 NW 9 17 5 9 - - 9.4
22/02:00am 8.4 5.8 5.9 84 1.2 NW 9 20 5 11 - - 9.4
22/01:30am 8.4 5.8 5.9 84 1.2 NNW 9 17 5 9 - - 9.4
22/01:00am 8.5 5.5 5.8 83 1.2 NW 11 20 6 11 - - 9.4
22/12:30am 8.5 6.3 6.0 84 1.2 NW 7 11 4 6 - - 9.4
22/12:00am 8.6 6.0 5.9 83 1.2 NW 9 15 5 8 - - 9.4
 
Date/Time
WST
Temp
°C
App
Temp
°C
Dew
Point
°C
Rel
Hum
%
Delta-T
°C
Wind Press
QNH
hPa
Press
MSL
hPa
Rain since
9am
mm
Dir  Spd
km/h
Gust
km/h
Spd
kts
Gust
kts
21/11:30pm 9.1 6.6 6.4 83 1.3 NW 9 15 5 8 - - 9.4
21/11:00pm 8.9 5.9 6.2 83 1.3 NNW 11 17 6 9 - - 9.4
21/10:30pm 8.9 6.3 6.2 83 1.3 NW 9 19 5 10 - - 9.4
21/10:00pm 9.3 6.4 6.4 82 1.4 NW 11 19 6 10 - - 9.4
21/09:30pm 9.8 7.4 6.9 82 1.4 WNW 9 17 5 9 - - 9.4
21/09:00pm 9.5 6.6 6.6 82 1.4 NW 11 19 6 10 - - 9.4
21/08:30pm 9.9 7.1 7.0 82 1.4 NW 11 19 6 10 - - 9.4
21/08:00pm 10.1 7.3 7.0 81 1.5 NW 11 17 6 9 - - 9.4
21/07:30pm 10.6 7.8 7.1 79 1.7 NW 11 19 6 10 - - 9.4
21/07:00pm 10.6 7.8 7.1 79 1.7 NNW 11 22 6 12 - - 9.4
21/06:30pm 10.5 7.7 6.8 78 1.8 NW 11 20 6 11 - - 9.4
21/06:00pm 10.9 8.1 6.8 76 2.0 WNW 11 20 6 11 - - 9.4
21/05:30pm 11.7 8.2 7.4 75 2.1 W 15 28 8 15 - - 9.4
21/05:00pm 11.9 8.7 8.4 79 1.8 WNW 15 32 8 17 - - 9.4
21/04:30pm 12.2 10.1 9.8 85 1.2 WNW 11 26 6 14 - - 9.4
21/04:00pm 12.8 9.9 9.8 82 1.6 NW 15 30 8 16 - - 9.2
21/03:30pm 12.5 9.9 10.6 88 1.0 WNW 15 24 8 13 - - 9.2
21/03:00pm 12.2 9.1 10.4 89 0.9 WNW 17 30 9 16 - - 9.2
21/02:30pm 12.5 9.9 10.6 88 1.0 NW 15 35 8 19 - - 7.8
21/02:00pm 12.6 9.7 11.0 90 0.8 NW 17 35 9 19 - - 7.8
21/01:30pm 11.7 7.9 9.9 89 0.9 NW 20 33 11 18 - - 6.8
21/01:00pm 11.9 9.0 9.6 86 1.2 W 15 26 8 14 - - 3.8
21/12:30pm 15.1 11.6 8.8 66 3.2 NW 17 30 9 16 - - 0.0
21/12:00pm 15.7 10.8 8.4 62 3.7 NW 24 56 13 30 - - 0.0
21/11:38am 15.7 9.9 8.0 60 3.9 NW 28 46 15 25 - - 0.0
21/11:30am 15.8 11.4 8.8 63 3.6 NNW 22 46 12 25 - - 0.0
21/11:00am 15.1 11.6 10.3 73 2.5 NNW 19 43 10 23 - - 0.0
21/10:30am 14.1 10.3 9.7 75 2.3 NW 20 37 11 20 - - 0.0
21/10:00am 13.6 10.4 9.8 78 2.0 NNW 17 37 9 20 - - 0.0
21/09:30am 12.9 9.2 9.5 80 1.8 NNW 19 32 10 17 - - 0.0
21/09:00am 12.2 8.9 9.6 84 1.3 NNW 17 32 9 17 - - 1.8
21/08:30am 10.9 7.9 9.2 89 0.9 NNW 15 26 8 14 - - 1.8
21/08:00am 10.1 7.3 8.5 90 0.8 NNW 13 20 7 11 - - 1.8
21/07:30am 9.7 6.8 8.0 89 0.8 NNW 13 20 7 11 - - 1.8
21/07:00am 9.9 7.0 8.2 89 0.8 NNW 13 26 7 14 - - 1.8
21/06:30am 9.9 6.6 8.2 89 0.8 NNW 15 26 8 14 - - 1.8
21/06:00am 9.7 6.7 7.8 88 0.9 NNW 13 20 7 11 - - 1.8
21/05:30am 10.0 6.7 8.1 88 0.9 NNW 15 32 8 17 - - 1.8
21/05:00am 10.1 6.8 8.0 87 1.0 NNW 15 26 8 14 - - 1.8
21/04:30am 9.9 6.9 7.7 86 1.1 NNW 13 22 7 12 - - 1.8
21/04:00am 10.0 7.0 7.8 86 1.1 NNW 13 20 7 11 - - 1.8
21/03:30am 9.8 7.2 7.6 86 1.1 NNW 11 20 6 11 - - 1.8
21/03:00am 9.8 6.7 7.4 85 1.2 NNW 13 19 7 10 - - 1.8
21/02:30am 10.0 6.9 7.4 84 1.3 NNW 13 24 7 13 - - 1.8
21/02:00am 9.7 6.9 7.1 84 1.2 NNW 11 22 6 12 - - 1.8
21/01:30am 9.4 6.6 6.8 84 1.2 NNW 11 20 6 11 - - 1.8
21/01:00am 9.2 6.3 6.6 84 1.2 NNW 11 20 6 11 - - 1.8
21/12:30am 9.4 6.6 7.0 85 1.1 NNW 11 17 6 9 - - 1.8
21/12:00am 9.5 6.7 7.1 85 1.1 NNW 11 17 6 9 - - 1.8
 
Date/Time
WST
Temp
°C
App
Temp
°C
Dew
Point
°C
Rel
Hum
%
Delta-T
°C
Wind Press
QNH
hPa
Press
MSL
hPa
Rain since
9am
mm
Dir  Spd
km/h
Gust
km/h
Spd
kts
Gust
kts
20/11:30pm 10.0 7.6 7.1 82 1.4 WNW 9 15 5 8 - - 1.8
20/11:00pm 10.0 7.7 7.3 83 1.3 NW 9 20 5 11 - - 1.8

Other Formats:

Comma delimited format used in spreadsheet applications
http://www.bom.gov.au/fwo/IDW60801/IDW60801.94631.axf

JavaScript Object Notation format (JSON) in row-major order
http://www.bom.gov.au/fwo/IDW60801/IDW60801.94631.json